Pagrindinis puslapis
METAR-TAF:

METAR-TAF

Oro uostai :

Mihailo Kogelničanu tarptautinis oro uostas

Konstanca, Rumunija

platuma: 44-20N, ilguma: 028-26E, Aukštis: 97 m

Dabartinis oras

Ataskaita buvo paskelbta 12 minutes, ne 12:30 UTC
Vėjas 11 kt iš Vakarų
Temperatūra 11°C
Drėgmė 71%
Slėgis 1018 hPa
Matomumas 10 km arba daugiau
nėra debesų žemiau 1500 m ir nėra kamuolinių lietaus debesų

METAR: LRCK 151230Z 27011KT CAVOK 11/06 Q1018 NOSIG

Laikas: 14:42 (12:42 UTC)

Prognozė

Ataskaita buvo paskelbta 1 valandą ir 42 minutes, ne 11:00 UTC
Prognozė galioja nuo 15 metu 12 UTC su 16 metu 12 UTC
Vėjas 12 kt iš Vakarų/Šiaurės Vakarų
Matomumas 10 km arba daugiau
nėra debesų žemiau 1500 m ir nėra kamuolinių lietaus debesų
Tapsmas
nuo 15 metu 15 UTC su 15 metu 17 UTC
Vėjas 4 kt nuo kintamojo kryptimis
Tapsmas
nuo 16 metu 00 UTC su 16 metu 02 UTC
Vėjas 10 kt iš Pietvakarių

TAF: LRCK 151100Z 1512/1612 29012KT CAVOK BECMG 1515/1517 VRB04KT BECMG 1600/1602 22010KT

Orai ataskaitas ir orų prognozės (METAR, TAF).

turimą stotys yra geltonos ir raudonos taškus žemėlapyje.

Perkelti pele per norėdami pamatyti stoties vardą.

Tada spustelėkite, norėdami matyti oro stebėjimo ir prognozės.

Norėdami pakeisti žemėlapį: spustelėkite ant žalios mygtukų su juodo kryžiaus žemyn,; žalią mygtuką su brūkšneliu, jei norite nutolinti; arba žalių rodyklių gretimoms žemėlapius.


METAR-TAF: